Time;durP1;ratioP1;P1;durP2;ratioP2;P2;SDS_P1;SDS_P2;PMS_P1;PMS_P2;Temp;Humidity;BMP_temperature;BMP_pressure;BME280_temperature;BME280_humidity;BME280_pressure;Samples;Min_cycle;Max_cycle;Signal;HPM_P1;HPM_P2
2023/03/11 00:02:14;;;;;;;;;;;24.60;74.50;;;;;;6276804;22;19998;-68
2023/03/11 00:04:40;;;;;;;;;;;24.70;74.70;;;;;;6304506;22;20620;-68
2023/03/11 00:07:08;;;;;;;;;;;24.80;74.50;;;;;;6304050;22;20001;-68
2023/03/11 00:09:34;;;;;;;;;;;24.80;74.40;;;;;;6304221;22;20267;-68
2023/03/11 00:12:01;;;;;;;;;;;24.80;73.80;;;;;;6276874;22;20326;-68
2023/03/11 00:14:28;;;;;;;;;;;24.80;73.40;;;;;;6277280;22;19907;-68
2023/03/11 00:16:54;;;;;;;;;;;24.90;73.30;;;;;;6277008;22;20006;-68
2023/03/11 00:19:21;;;;;;;;;;;24.90;73.00;;;;;;6304086;22;19906;-68
2023/03/11 00:21:48;;;;;;;;;;;24.90;73.30;;;;;;6301153;22;19906;-68
2023/03/11 00:24:15;;;;;;;;;;;25.00;73.20;;;;;;6304133;22;20238;-68
2023/03/11 00:26:41;;;;;;;;;;;25.00;73.30;;;;;;6303980;22;19911;-67
2023/03/11 00:29:08;;;;;;;;;;;25.00;73.10;;;;;;6304206;22;20270;-69
2023/03/11 00:31:35;;;;;;;;;;;25.00;73.40;;;;;;6303882;22;19903;-69
2023/03/11 00:34:01;;;;;;;;;;;25.00;73.00;;;;;;6304491;22;19915;-69
2023/03/11 00:36:38;;;;;;;;;;;25.00;72.60;;;;;;6303597;22;19913;-69
2023/03/11 00:39:09;;;;;;;;;;;25.10;72.30;;;;;;6302847;22;19960;-70
2023/03/11 00:41:36;;;;;;;;;;;25.20;72.00;;;;;;6304017;22;19957;-69
2023/03/11 00:44:03;;;;;;;;;;;25.20;72.00;;;;;;6303595;22;20363;-69
2023/03/11 00:46:30;;;;;;;;;;;25.30;71.40;;;;;;6303482;22;20322;-70
2023/03/11 00:48:56;;;;;;;;;;;25.30;71.00;;;;;;6303509;22;20286;-71
2023/03/11 00:51:23;;;;;;;;;;;25.40;70.30;;;;;;6303619;22;19907;-70
2023/03/11 00:53:50;;;;;;;;;;;25.40;70.30;;;;;;6303841;22;20115;-69
2023/03/11 00:56:17;;;;;;;;;;;25.50;70.30;;;;;;6303672;22;19914;-71
2023/03/11 00:58:44;;;;;;;;;;;25.60;70.10;;;;;;6303397;22;19914;-74
2023/03/11 01:01:12;;;;;;;;;;;25.70;69.40;;;;;;6304419;22;19922;-71
2023/03/11 01:03:39;;;;;;;;;;;25.70;68.90;;;;;;6303594;22;19907;-67
2023/03/11 01:06:05;;;;;;;;;;;25.80;68.20;;;;;;6303292;22;19990;-71
2023/03/11 01:08:32;;;;;;;;;;;25.80;68.40;;;;;;6303762;22;19941;-69
2023/03/11 01:10:59;;;;;;;;;;;25.80;68.30;;;;;;6303591;22;19971;-68
2023/03/11 01:13:26;;;;;;;;;;;25.80;67.70;;;;;;6303875;22;19907;-69
2023/03/11 01:15:53;;;;;;;;;;;25.80;66.50;;;;;;6275642;22;19990;-70
2023/03/11 01:18:20;;;;;;;;;;;25.90;67.20;;;;;;6276286;22;20334;-72
2023/03/11 01:20:47;;;;;;;;;;;26.00;67.00;;;;;;6276051;22;19911;-72
2023/03/11 01:23:17;;;;;;;;;;;26.00;67.00;;;;;;6299178;22;19986;-71
2023/03/11 01:25:44;;;;;;;;;;;26.00;66.20;;;;;;6302844;22;19990;-72
2023/03/11 01:28:10;;;;;;;;;;;26.10;65.90;;;;;;6275915;22;20413;-69
2023/03/11 01:30:37;;;;;;;;;;;26.20;65.40;;;;;;6301463;22;19913;-68
2023/03/11 01:33:04;;;;;;;;;;;26.30;65.40;;;;;;6274061;22;19903;-67
2023/03/11 01:35:31;;;;;;;;;;;26.30;65.80;;;;;;6301883;22;19941;-70
2023/03/11 01:37:58;;;;;;;;;;;26.40;64.50;;;;;;6301833;22;20301;-68
2023/03/11 01:40:32;;;;;;;;;;;26.50;64.20;;;;;;6301499;22;19913;-69
2023/03/11 01:42:59;;;;;;;;;;;26.60;64.60;;;;;;6274625;22;19910;-68
2023/03/11 01:45:30;;;;;;;;;;;26.70;66.80;;;;;;6275319;22;19914;-69
2023/03/11 01:47:57;;;;;;;;;;;26.60;66.80;;;;;;6276546;22;19986;-68
2023/03/11 01:50:31;;;;;;;;;;;26.50;66.30;;;;;;6303321;22;19906;-70
2023/03/11 01:52:58;;;;;;;;;;;26.50;66.80;;;;;;6276481;22;19953;-71
2023/03/11 01:55:24;;;;;;;;;;;26.60;67.30;;;;;;6303526;22;19950;-70
2023/03/11 01:57:51;;;;;;;;;;;26.60;67.40;;;;;;6275900;22;19938;-69
2023/03/11 02:00:18;;;;;;;;;;;26.60;67.50;;;;;;6276419;22;20223;-69
2023/03/11 02:02:48;;;;;;;;;;;26.70;67.40;;;;;;6303700;22;19911;-70
2023/03/11 02:05:14;;;;;;;;;;;26.60;68.30;;;;;;6303353;22;19903;-69
2023/03/11 02:07:41;;;;;;;;;;;26.70;69.20;;;;;;6303743;22;20046;-70
2023/03/11 02:10:08;;;;;;;;;;;26.70;69.60;;;;;;6276084;22;19919;-70
2023/03/11 02:12:35;;;;;;;;;;;26.60;69.00;;;;;;6302717;22;19903;-72
2023/03/11 02:15:02;;;;;;;;;;;26.50;70.10;;;;;;6249807;22;20318;-72
2023/03/11 02:17:30;;;;;;;;;;;26.50;70.60;;;;;;6275747;22;19909;-73
2023/03/11 02:19:59;;;;;;;;;;;26.40;71.10;;;;;;6303664;22;19914;-73
2023/03/11 02:22:28;;;;;;;;;;;26.30;70.50;;;;;;6301116;22;19934;-72
2023/03/11 02:24:58;;;;;;;;;;;26.30;70.40;;;;;;6276818;22;19990;-72
2023/03/11 02:27:25;;;;;;;;;;;26.40;69.90;;;;;;6302924;22;19968;-72
2023/03/11 02:29:52;;;;;;;;;;;26.40;70.30;;;;;;6276526;22;20322;-71
2023/03/11 02:32:20;;;;;;;;;;;26.30;70.40;;;;;;6276204;22;20325;-73
2023/03/11 02:34:46;;;;;;;;;;;26.40;70.30;;;;;;6275957;22;20334;-73
2023/03/11 02:37:14;;;;;;;;;;;26.40;70.80;;;;;;6275677;22;19914;-73
2023/03/11 02:39:41;;;;;;;;;;;26.30;70.50;;;;;;6275273;22;20277;-72
2023/03/11 02:42:08;;;;;;;;;;;26.40;70.20;;;;;;6275672;22;20436;-72
2023/03/11 02:44:35;;;;;;;;;;;26.40;70.50;;;;;;6302868;22;19903;-72
2023/03/11 02:47:01;;;;;;;;;;;26.40;69.90;;;;;;6276064;22;19921;-72
2023/03/11 02:49:28;;;;;;;;;;;26.40;70.00;;;;;;6276494;22;19914;-70
2023/03/11 02:51:55;;;;;;;;;;;26.40;70.10;;;;;;6275730;22;19913;-70
2023/03/11 02:54:22;;;;;;;;;;;26.40;69.90;;;;;;6302807;22;19914;-69
2023/03/11 02:56:48;;;;;;;;;;;26.40;70.10;;;;;;6302613;22;19906;-70
2023/03/11 02:59:15;;;;;;;;;;;26.40;69.80;;;;;;6302717;22;19903;-69
2023/03/11 03:01:42;;;;;;;;;;;26.40;69.30;;;;;;6302625;22;20230;-69
2023/03/11 03:04:08;;;;;;;;;;;26.50;69.60;;;;;;6303163;22;20322;-69
2023/03/11 03:06:35;;;;;;;;;;;26.40;69.90;;;;;;6303368;22;19911;-69
2023/03/11 03:09:02;;;;;;;;;;;26.40;69.40;;;;;;6302902;22;19922;-70
2023/03/11 03:11:29;;;;;;;;;;;26.40;68.60;;;;;;6302682;22;19914;-69
2023/03/11 03:13:55;;;;;;;;;;;26.40;69.80;;;;;;6275159;22;19914;-70
2023/03/11 03:16:22;;;;;;;;;;;26.50;69.30;;;;;;6303429;22;19922;-70
2023/03/11 03:18:50;;;;;;;;;;;26.50;69.80;;;;;;6303049;22;19907;-70
2023/03/11 03:21:17;;;;;;;;;;;26.50;69.80;;;;;;6300839;22;19906;-70
2023/03/11 03:23:43;;;;;;;;;;;26.50;69.50;;;;;;6303240;22;19907;-71
2023/03/11 03:26:12;;;;;;;;;;;26.50;69.50;;;;;;6302406;22;19915;-72
2023/03/11 03:28:38;;;;;;;;;;;26.50;69.10;;;;;;6276019;22;19903;-71
2023/03/11 03:31:06;;;;;;;;;;;26.60;68.40;;;;;;6304053;22;20280;-71
2023/03/11 03:33:32;;;;;;;;;;;26.60;69.70;;;;;;6277974;22;19962;-70
2023/03/11 03:35:59;;;;;;;;;;;26.60;69.10;;;;;;6304641;22;20280;-69
2023/03/11 03:38:26;;;;;;;;;;;26.60;68.80;;;;;;6304473;22;19965;-71
2023/03/11 03:40:53;;;;;;;;;;;26.60;68.30;;;;;;6304583;22;19907;-69
2023/03/11 03:43:19;;;;;;;;;;;26.70;67.90;;;;;;6304460;22;19907;-70
2023/03/11 03:45:54;;;;;;;;;;;26.70;68.50;;;;;;6276959;22;19926;-70
2023/03/11 03:48:20;;;;;;;;;;;26.70;66.30;;;;;;6304449;22;19907;-70
2023/03/11 03:50:47;;;;;;;;;;;26.70;67.70;;;;;;6304370;22;19914;-69
2023/03/11 03:53:14;;;;;;;;;;;26.70;67.50;;;;;;6304661;22;19907;-70
2023/03/11 03:55:40;;;;;;;;;;;26.70;66.60;;;;;;6304540;22;19952;-71
2023/03/11 03:58:07;;;;;;;;;;;26.70;67.90;;;;;;6304883;22;19906;-71
2023/03/11 04:00:34;;;;;;;;;;;26.80;66.90;;;;;;6304444;22;19907;-68
2023/03/11 04:03:00;;;;;;;;;;;26.80;67.70;;;;;;6276943;22;20345;-68
2023/03/11 04:05:27;;;;;;;;;;;26.80;66.80;;;;;;6304230;22;19902;-69
2023/03/11 04:07:54;;;;;;;;;;;26.80;67.90;;;;;;6303388;22;19907;-70
2023/03/11 04:10:21;;;;;;;;;;;26.80;67.60;;;;;;6276421;22;19923;-68
2023/03/11 04:12:47;;;;;;;;;;;26.80;67.00;;;;;;6276323;22;20310;-69
2023/03/11 04:15:14;;;;;;;;;;;26.80;67.10;;;;;;6302969;22;19960;-69
2023/03/11 04:17:41;;;;;;;;;;;26.80;67.50;;;;;;6304355;22;19965;-69
2023/03/11 04:20:09;;;;;;;;;;;26.80;67.60;;;;;;6276246;22;19934;-69
2023/03/11 04:22:35;;;;;;;;;;;26.80;67.70;;;;;;6273148;22;19914;-69
2023/03/11 04:25:02;;;;;;;;;;;26.80;67.20;;;;;;6304030;22;19907;-69
2023/03/11 04:27:29;;;;;;;;;;;26.80;68.40;;;;;;6303730;22;19994;-69
2023/03/11 04:29:56;;;;;;;;;;;26.60;68.30;;;;;;6276564;22;19903;-69
2023/03/11 04:32:22;;;;;;;;;;;26.60;68.40;;;;;;6304118;22;19910;-70
2023/03/11 04:34:49;;;;;;;;;;;26.50;68.50;;;;;;6303735;22;20334;-71
2023/03/11 04:37:16;;;;;;;;;;;26.60;67.90;;;;;;6303813;22;19981;-70
2023/03/11 04:39:43;;;;;;;;;;;26.60;67.80;;;;;;6303275;22;20301;-69
2023/03/11 04:42:12;;;;;;;;;;;26.60;67.80;;;;;;6303647;22;19990;-69
2023/03/11 04:44:39;;;;;;;;;;;26.60;67.40;;;;;;6302943;22;19907;-69
2023/03/11 04:47:06;;;;;;;;;;;26.60;67.50;;;;;;6302604;22;19915;-68
2023/03/11 04:49:32;;;;;;;;;;;26.60;66.70;;;;;;6302849;22;19910;-68
2023/03/11 04:51:59;;;;;;;;;;;26.60;67.30;;;;;;6303323;22;19924;-69
2023/03/11 04:54:26;;;;;;;;;;;26.60;67.60;;;;;;6302391;22;20317;-69
2023/03/11 04:56:52;;;;;;;;;;;26.60;68.30;;;;;;6275806;22;19913;-69
2023/03/11 04:59:19;;;;;;;;;;;26.60;68.40;;;;;;6303667;22;19989;-68
2023/03/11 05:01:46;;;;;;;;;;;26.60;69.10;;;;;;6303400;22;19903;-71
2023/03/11 05:04:13;;;;;;;;;;;26.70;69.40;;;;;;6303799;22;20010;-69
2023/03/11 05:06:39;;;;;;;;;;;26.60;69.70;;;;;;6303382;22;19915;-70
2023/03/11 05:09:06;;;;;;;;;;;26.60;70.30;;;;;;6302826;22;19934;-68
2023/03/11 05:11:33;;;;;;;;;;;26.50;70.10;;;;;;6303498;22;20405;-68
2023/03/11 05:14:00;;;;;;;;;;;26.50;71.10;;;;;;6275747;22;20280;-68
2023/03/11 05:16:27;;;;;;;;;;;26.60;70.80;;;;;;6303781;22;19981;-69
2023/03/11 05:18:54;;;;;;;;;;;26.50;71.00;;;;;;6303772;22;19913;-70
2023/03/11 05:21:20;;;;;;;;;;;26.50;71.00;;;;;;6301127;22;20219;-70
2023/03/11 05:23:47;;;;;;;;;;;26.50;70.30;;;;;;6302595;22;19987;-69
2023/03/11 05:26:14;;;;;;;;;;;26.50;70.90;;;;;;6303037;22;20408;-70
2023/03/11 05:28:40;;;;;;;;;;;26.40;70.40;;;;;;6303207;22;19998;-70
2023/03/11 05:31:10;;;;;;;;;;;26.50;70.50;;;;;;6303607;22;20314;-69
2023/03/11 05:33:37;;;;;;;;;;;26.50;70.60;;;;;;6303904;22;19906;-70
2023/03/11 05:36:07;;;;;;;;;;;26.40;71.10;;;;;;6303991;22;19911;-70
2023/03/11 05:38:35;;;;;;;;;;;26.40;70.60;;;;;;6303449;22;20285;-71
2023/03/11 05:41:01;;;;;;;;;;;26.40;69.80;;;;;;6275887;22;19981;-69
2023/03/11 05:43:28;;;;;;;;;;;26.40;69.70;;;;;;6303213;22;19907;-71
2023/03/11 05:45:55;;;;;;;;;;;26.40;69.10;;;;;;6302982;22;19921;-69
2023/03/11 05:48:21;;;;;;;;;;;26.40;69.30;;;;;;6303030;22;19982;-69
2023/03/11 05:50:48;;;;;;;;;;;26.40;68.60;;;;;;6303215;22;20316;-69
2023/03/11 05:53:15;;;;;;;;;;;26.40;69.00;;;;;;6303052;22;19903;-67
2023/03/11 05:55:41;;;;;;;;;;;26.40;68.60;;;;;;6303318;22;19907;-68
2023/03/11 05:58:08;;;;;;;;;;;26.40;68.90;;;;;;6302711;22;19914;-68
2023/03/11 06:00:35;;;;;;;;;;;26.40;68.90;;;;;;6303207;22;19949;-69
2023/03/11 06:03:02;;;;;;;;;;;26.50;68.80;;;;;;6302863;22;19986;-69
2023/03/11 06:05:29;;;;;;;;;;;26.40;68.70;;;;;;6302985;22;20289;-68
2023/03/11 06:07:55;;;;;;;;;;;26.40;68.70;;;;;;6302866;22;19953;-68
2023/03/11 06:10:22;;;;;;;;;;;26.40;68.70;;;;;;6303195;22;20326;-67
2023/03/11 06:12:49;;;;;;;;;;;26.30;68.70;;;;;;6303238;22;19982;-68
2023/03/11 06:15:16;;;;;;;;;;;26.30;68.80;;;;;;6302715;22;19910;-67
2023/03/11 06:17:42;;;;;;;;;;;26.30;69.20;;;;;;6302634;22;20420;-68
2023/03/11 06:20:09;;;;;;;;;;;26.30;69.00;;;;;;6303408;22;19907;-68
2023/03/11 06:22:36;;;;;;;;;;;26.30;68.80;;;;;;6300710;22;19903;-70
2023/03/11 06:25:03;;;;;;;;;;;26.30;68.70;;;;;;6303211;22;19956;-70
2023/03/11 06:27:29;;;;;;;;;;;26.30;68.80;;;;;;6302718;22;19915;-68
2023/03/11 06:29:56;;;;;;;;;;;26.30;68.70;;;;;;6302970;22;20310;-68
2023/03/11 06:32:23;;;;;;;;;;;26.30;69.10;;;;;;6303842;22;19915;-68
2023/03/11 06:34:50;;;;;;;;;;;26.30;69.30;;;;;;6303410;22;19986;-68
2023/03/11 06:37:17;;;;;;;;;;;26.20;69.80;;;;;;6302743;22;19913;-68
2023/03/11 06:39:44;;;;;;;;;;;26.20;69.70;;;;;;6302957;22;19907;-68
2023/03/11 06:42:11;;;;;;;;;;;26.20;69.80;;;;;;6303173;22;19907;-69
2023/03/11 06:44:38;;;;;;;;;;;26.20;70.00;;;;;;6303105;22;19907;-68
2023/03/11 06:47:05;;;;;;;;;;;26.20;70.30;;;;;;6303157;22;19915;-67
2023/03/11 06:49:31;;;;;;;;;;;26.20;70.80;;;;;;6275731;22;19972;-67
2023/03/11 06:52:01;;;;;;;;;;;26.20;70.40;;;;;;6302819;22;19918;-71
2023/03/11 06:54:28;;;;;;;;;;;26.10;70.60;;;;;;6302897;22;19910;-68
2023/03/11 06:56:54;;;;;;;;;;;26.10;69.60;;;;;;6302621;22;19911;-69
2023/03/11 06:59:21;;;;;;;;;;;26.20;70.20;;;;;;6303025;22;19915;-69
2023/03/11 07:01:48;;;;;;;;;;;26.10;70.50;;;;;;6302890;22;19934;-71
2023/03/11 07:04:15;;;;;;;;;;;26.10;70.80;;;;;;6251974;22;19930;-68
2023/03/11 07:06:42;;;;;;;;;;;26.10;71.20;;;;;;6304472;22;19990;-68
2023/03/11 07:09:09;;;;;;;;;;;26.00;71.50;;;;;;6277625;22;19915;-68
2023/03/11 07:11:35;;;;;;;;;;;26.00;71.80;;;;;;6305379;22;19918;-68
2023/03/11 07:14:02;;;;;;;;;;;26.00;71.80;;;;;;6304690;22;19943;-69
2023/03/11 07:16:29;;;;;;;;;;;26.00;71.10;;;;;;6304519;22;19902;-67
2023/03/11 07:19:01;;;;;;;;;;;26.00;71.30;;;;;;6277133;22;19938;-66
2023/03/11 07:21:28;;;;;;;;;;;25.90;71.50;;;;;;6275696;22;19985;-66
2023/03/11 07:23:55;;;;;;;;;;;25.90;71.70;;;;;;6276092;22;19903;-66
2023/03/11 07:26:22;;;;;;;;;;;25.90;71.40;;;;;;6276892;22;19923;-66
2023/03/11 07:28:49;;;;;;;;;;;25.90;70.90;;;;;;6304000;22;20378;-66
2023/03/11 07:31:17;;;;;;;;;;;25.80;71.00;;;;;;6304237;22;19982;-66
2023/03/11 07:33:43;;;;;;;;;;;25.80;71.10;;;;;;6304712;22;19979;-65
2023/03/11 07:36:11;;;;;;;;;;;25.80;71.30;;;;;;6303696;22;19907;-66
2023/03/11 07:38:38;;;;;;;;;;;25.80;71.00;;;;;;6304256;22;19903;-65
2023/03/11 07:41:05;;;;;;;;;;;25.80;71.00;;;;;;6304224;22;20284;-65
2023/03/11 07:43:31;;;;;;;;;;;25.80;71.20;;;;;;6304476;22;20237;-65
2023/03/11 07:46:17;;;;;;;;;;;25.80;71.00;;;;;;6303580;22;19915;-65
2023/03/11 07:48:44;;;;;;;;;;;25.80;71.20;;;;;;6303937;22;19914;-65
2023/03/11 07:51:17;;;;;;;;;;;25.70;71.00;;;;;;6303595;22;19907;-65
2023/03/11 07:53:44;;;;;;;;;;;25.70;70.70;;;;;;6277093;22;19922;-68
2023/03/11 07:56:11;;;;;;;;;;;25.70;70.40;;;;;;6277517;22;19907;-68
2023/03/11 07:58:38;;;;;;;;;;;25.70;70.60;;;;;;6304670;22;19907;-68
2023/03/11 08:01:09;;;;;;;;;;;25.70;70.70;;;;;;6304489;22;20352;-68
2023/03/11 08:03:36;;;;;;;;;;;25.70;70.70;;;;;;6304276;22;19989;-67
2023/03/11 08:06:03;;;;;;;;;;;25.70;70.80;;;;;;6276485;22;20345;-66
2023/03/11 08:08:29;;;;;;;;;;;25.70;70.80;;;;;;6304440;22;20297;-66
2023/03/11 08:10:56;;;;;;;;;;;25.70;70.80;;;;;;6276862;22;19922;-67
2023/03/11 08:13:23;;;;;;;;;;;25.70;70.70;;;;;;6303752;22;20344;-66
2023/03/11 08:15:49;;;;;;;;;;;25.60;70.50;;;;;;6303002;22;19907;-67
2023/03/11 08:18:16;;;;;;;;;;;25.70;70.20;;;;;;6304186;22;19930;-67
2023/03/11 08:20:44;;;;;;;;;;;25.60;70.50;;;;;;6303926;22;19922;-65
2023/03/11 08:23:11;;;;;;;;;;;25.60;70.40;;;;;;6301533;22;20253;-65
2023/03/11 08:25:38;;;;;;;;;;;25.60;70.50;;;;;;6304223;22;19914;-66
2023/03/11 08:28:06;;;;;;;;;;;25.60;70.60;;;;;;6303938;22;19903;-66
2023/03/11 08:30:33;;;;;;;;;;;25.60;70.50;;;;;;6276953;22;19934;-67
2023/03/11 08:33:00;;;;;;;;;;;25.50;70.50;;;;;;6276579;22;19918;-69
2023/03/11 08:35:27;;;;;;;;;;;25.50;70.70;;;;;;6303086;22;19981;-69
2023/03/11 08:37:53;;;;;;;;;;;25.50;70.70;;;;;;6302785;22;19971;-70
2023/03/11 08:40:20;;;;;;;;;;;25.50;70.60;;;;;;6303457;22;19913;-68
2023/03/11 08:42:47;;;;;;;;;;;25.50;70.40;;;;;;6276387;22;19960;-68
2023/03/11 08:45:14;;;;;;;;;;;25.50;70.50;;;;;;6304010;22;19914;-69
2023/03/11 08:47:40;;;;;;;;;;;25.50;70.60;;;;;;6276886;22;19934;-68
2023/03/11 08:50:09;;;;;;;;;;;25.40;70.00;;;;;;6304009;22;19907;-69
2023/03/11 08:52:35;;;;;;;;;;;25.50;70.00;;;;;;6277371;22;19982;-69
2023/03/11 08:55:03;;;;;;;;;;;25.40;69.90;;;;;;6275780;22;19903;-68
2023/03/11 08:57:30;;;;;;;;;;;25.40;69.40;;;;;;6303891;22;19914;-69
2023/03/11 08:59:57;;;;;;;;;;;25.40;69.50;;;;;;6303965;22;19980;-67
2023/03/11 09:02:24;;;;;;;;;;;25.40;69.20;;;;;;6303949;22;19914;-68
2023/03/11 09:04:51;;;;;;;;;;;25.30;68.80;;;;;;6303777;22;19907;-67
2023/03/11 09:07:18;;;;;;;;;;;25.40;68.50;;;;;;6303643;22;19977;-67
2023/03/11 09:09:45;;;;;;;;;;;25.40;68.80;;;;;;6276873;22;19923;-67
2023/03/11 09:12:14;;;;;;;;;;;25.40;68.80;;;;;;6303553;22;19907;-67
2023/03/11 09:14:41;;;;;;;;;;;25.40;68.80;;;;;;6303450;22;19998;-69
2023/03/11 09:17:08;;;;;;;;;;;25.40;68.60;;;;;;6303659;22;19965;-68
2023/03/11 09:19:35;;;;;;;;;;;25.40;68.60;;;;;;6276502;22;19935;-67
2023/03/11 09:22:02;;;;;;;;;;;25.40;68.60;;;;;;6301546;22;19903;-67
2023/03/11 09:24:29;;;;;;;;;;;25.30;68.70;;;;;;6275946;22;19907;-66
2023/03/11 09:26:55;;;;;;;;;;;25.30;69.10;;;;;;6302696;22;19914;-67
2023/03/11 09:29:22;;;;;;;;;;;25.30;69.50;;;;;;6303074;22;19903;-67
2023/03/11 09:31:49;;;;;;;;;;;25.30;69.90;;;;;;6301154;22;19914;-69
2023/03/11 09:34:15;;;;;;;;;;;25.30;70.10;;;;;;6302819;22;19907;-68
2023/03/11 09:36:42;;;;;;;;;;;25.30;70.10;;;;;;6299796;22;19903;-68
2023/03/11 09:39:09;;;;;;;;;;;25.30;70.70;;;;;;6275463;22;19903;-68
2023/03/11 09:41:36;;;;;;;;;;;25.30;70.30;;;;;;6300886;22;20477;-67
2023/03/11 09:44:02;;;;;;;;;;;25.30;70.20;;;;;;6302929;22;19907;-67
2023/03/11 09:46:47;;;;;;;;;;;25.30;70.20;;;;;;6302260;22;19915;-68
2023/03/11 09:49:32;;;;;;;;;;;25.30;70.20;;;;;;6301446;22;19907;-67
2023/03/11 09:52:25;;;;;;;;;;;25.30;70.00;;;;;;6303114;22;20317;-68
2023/03/11 09:54:52;;;;;;;;;;;25.30;70.20;;;;;;6268831;22;19903;-68
2023/03/11 09:57:23;;;;;;;;;;;25.30;70.30;;;;;;6303147;22;20284;-68
2023/03/11 09:59:49;;;;;;;;;;;25.30;70.30;;;;;;6276219;22;19903;-70
2023/03/11 10:02:20;;;;;;;;;;;25.30;70.40;;;;;;6249791;22;19934;-71
2023/03/11 10:04:59;;;;;;;;;;;25.20;70.60;;;;;;6276077;22;19907;-70
2023/03/11 10:07:32;;;;;;;;;;;25.20;71.00;;;;;;6302764;22;19915;-69
2023/03/11 10:09:59;;;;;;;;;;;25.20;71.00;;;;;;6275917;22;19922;-69
2023/03/11 10:12:33;;;;;;;;;;;25.20;71.30;;;;;;6275889;22;19906;-69
2023/03/11 10:15:08;;;;;;;;;;;25.20;71.30;;;;;;6302653;22;19907;-69
2023/03/11 10:17:53;;;;;;;;;;;25.20;71.90;;;;;;6276250;22;20242;-72
2023/03/11 10:20:56;;;;;;;;;;;25.20;72.30;;;;;;6275587;22;19906;-69
2023/03/11 10:23:33;;;;;;;;;;;25.20;72.50;;;;;;6144660;23;20281;-68
2023/03/11 10:26:09;;;;;;;;;;;25.20;73.40;;;;;;6283088;22;19907;-69
2023/03/11 10:28:37;;;;;;;;;;;25.20;73.80;;;;;;6275973;22;20415;-69
2023/03/11 10:31:24;;;;;;;;;;;25.20;74.00;;;;;;6275565;22;19911;-68
2023/03/11 10:33:51;;;;;;;;;;;25.10;74.80;;;;;;6275910;22;20241;-68
2023/03/11 10:36:23;;;;;;;;;;;25.10;75.10;;;;;;6275563;22;19914;-69
2023/03/11 10:38:50;;;;;;;;;;;25.10;75.20;;;;;;6304219;22;19921;-68
2023/03/11 10:41:31;;;;;;;;;;;25.10;75.20;;;;;;6278217;22;19907;-68
2023/03/11 10:44:18;;;;;;;;;;;25.10;75.30;;;;;;6278285;22;19960;-69
2023/03/11 10:46:44;;;;;;;;;;;25.10;75.20;;;;;;6304552;22;19989;-69
2023/03/11 10:49:13;;;;;;;;;;;25.10;75.30;;;;;;6305070;22;19907;-70
2023/03/11 10:51:39;;;;;;;;;;;25.10;75.70;;;;;;6277830;22;19918;-69
2023/03/11 10:54:06;;;;;;;;;;;25.10;75.70;;;;;;6277484;22;20262;-69
2023/03/11 10:56:37;;;;;;;;;;;25.10;75.80;;;;;;6304560;22;19909;-69
2023/03/11 10:59:04;;;;;;;;;;;25.00;75.90;;;;;;6304694;22;19949;-69
2023/03/11 11:01:31;;;;;;;;;;;25.00;76.10;;;;;;6304235;22;19917;-69
2023/03/11 11:03:59;;;;;;;;;;;25.00;76.20;;;;;;6304174;22;19969;-72
2023/03/11 11:06:27;;;;;;;;;;;25.00;76.20;;;;;;6277831;22;20026;-71
2023/03/11 11:09:05;;;;;;;;;;;25.00;76.30;;;;;;6277870;22;19911;-71
2023/03/11 11:11:35;;;;;;;;;;;24.90;76.30;;;;;;6304836;22;19937;-69
2023/03/11 11:14:02;;;;;;;;;;;25.00;76.30;;;;;;6277676;22;20296;-68
2023/03/11 11:16:28;;;;;;;;;;;24.90;76.20;;;;;;6277366;22;19957;-69
2023/03/11 11:19:05;;;;;;;;;;;24.90;76.20;;;;;;6304692;22;20258;-69
2023/03/11 11:21:44;;;;;;;;;;;24.90;76.10;;;;;;6302260;22;20122;-69
2023/03/11 11:24:27;;;;;;;;;;;24.90;76.20;;;;;;6278024;22;19907;-71
2023/03/11 11:27:06;;;;;;;;;;;24.90;76.40;;;;;;6277142;22;19915;-71
2023/03/11 11:29:33;;;;;;;;;;;24.80;76.30;;;;;;6303856;22;20212;-69
2023/03/11 11:32:18;;;;;;;;;;;24.80;76.40;;;;;;6304637;22;19911;-68
2023/03/11 11:34:57;;;;;;;;;;;24.80;76.30;;;;;;6307508;22;19911;-69
2023/03/11 11:37:25;;;;;;;;;;;24.80;76.20;;;;;;6306884;22;19910;-68
2023/03/11 11:39:57;;;;;;;;;;;24.80;76.40;;;;;;6280139;22;19910;-68
2023/03/11 11:42:24;;;;;;;;;;;24.80;76.40;;;;;;6307444;22;20212;-69
2023/03/11 11:45:00;;;;;;;;;;;24.80;76.40;;;;;;6280343;22;19942;-69
2023/03/11 11:47:32;;;;;;;;;;;24.80;76.40;;;;;;6307717;22;19910;-69
2023/03/11 11:50:00;;;;;;;;;;;24.80;76.50;;;;;;6280297;22;19933;-69
2023/03/11 11:52:27;;;;;;;;;;;24.80;76.50;;;;;;6280916;22;19903;-69
2023/03/11 11:54:58;;;;;;;;;;;24.70;76.60;;;;;;6280679;22;19903;-68
2023/03/11 11:57:25;;;;;;;;;;;24.70;76.30;;;;;;6280904;22;19910;-68
2023/03/11 11:59:51;;;;;;;;;;;24.70;76.50;;;;;;6280326;22;19910;-68
2023/03/11 12:02:21;;;;;;;;;;;24.70;76.40;;;;;;6280585;22;19918;-68
2023/03/11 12:04:49;;;;;;;;;;;24.70;76.20;;;;;;6307719;22;19910;-69
2023/03/11 12:07:19;;;;;;;;;;;24.70;76.20;;;;;;6307412;22;19918;-69
2023/03/11 12:09:46;;;;;;;;;;;24.60;76.00;;;;;;6280277;22;20226;-69
2023/03/11 12:12:15;;;;;;;;;;;24.60;75.70;;;;;;6308027;22;20361;-68
2023/03/11 12:14:47;;;;;;;;;;;24.70;75.50;;;;;;6307634;22;20234;-69
2023/03/11 12:17:14;;;;;;;;;;;24.60;75.20;;;;;;6280354;22;19903;-69
2023/03/11 12:19:43;;;;;;;;;;;24.60;75.20;;;;;;6254357;22;19982;-69
2023/03/11 12:22:33;;;;;;;;;;;24.60;75.10;;;;;;6280726;22;19929;-69
2023/03/11 12:25:01;;;;;;;;;;;24.60;75.40;;;;;;6235994;22;19981;-69
2023/03/11 12:27:35;;;;;;;;;;;24.70;77.90;;;;;;6280360;22;19993;-69
2023/03/11 12:30:03;;;;;;;;;;;24.80;80.30;;;;;;6280489;22;19985;-69
2023/03/11 12:32:37;;;;;;;;;;;24.70;81.10;;;;;;6279870;22;19910;-68
2023/03/11 12:35:10;;;;;;;;;;;24.70;83.40;;;;;;6307341;22;19903;-69
2023/03/11 12:37:36;;;;;;;;;;;24.70;84.30;;;;;;6280338;22;19907;-68
2023/03/11 12:40:21;;;;;;;;;;;24.60;85.10;;;;;;6307549;22;19933;-69
2023/03/11 12:42:48;;;;;;;;;;;24.60;85.50;;;;;;6307502;22;20270;-69
2023/03/11 12:45:33;;;;;;;;;;;24.50;85.70;;;;;;6307174;22;19930;-69
2023/03/11 12:48:17;;;;;;;;;;;24.40;86.00;;;;;;6307570;22;19911;-69
2023/03/11 12:50:44;;;;;;;;;;;24.40;85.90;;;;;;6307232;22;19903;-68
2023/03/11 12:53:15;;;;;;;;;;;24.30;86.00;;;;;;6280403;22;19903;-69
2023/03/11 12:55:43;;;;;;;;;;;24.30;86.00;;;;;;6280365;22;19914;-69
2023/03/11 12:58:27;;;;;;;;;;;24.30;86.20;;;;;;6279778;22;20026;-69
2023/03/11 13:01:04;;;;;;;;;;;24.30;86.40;;;;;;6279591;22;20337;-68
2023/03/11 13:03:34;;;;;;;;;;;24.20;86.70;;;;;;6307273;22;19985;-69
2023/03/11 13:06:10;;;;;;;;;;;24.20;86.80;;;;;;6306822;22;19954;-69
2023/03/11 13:08:54;;;;;;;;;;;24.20;86.90;;;;;;6307122;22;19910;-69
2023/03/11 13:11:33;;;;;;;;;;;24.20;87.00;;;;;;6279601;22;20351;-68
2023/03/11 13:14:18;;;;;;;;;;;24.20;87.10;;;;;;6306428;22;19957;-69
2023/03/11 13:16:45;;;;;;;;;;;24.20;87.30;;;;;;6279758;22;19929;-68
2023/03/11 13:19:27;;;;;;;;;;;24.20;87.40;;;;;;6306973;22;20341;-69
2023/03/11 13:21:54;;;;;;;;;;;24.30;87.50;;;;;;6306448;22;19906;-69
2023/03/11 13:24:21;;;;;;;;;;;24.20;87.70;;;;;;6279259;22;19907;-69
2023/03/11 13:27:05;;;;;;;;;;;24.20;87.90;;;;;;6306730;22;20246;-68
2023/03/11 13:29:53;;;;;;;;;;;24.20;88.00;;;;;;6306734;22;19934;-69
2023/03/11 13:32:38;;;;;;;;;;;24.20;88.10;;;;;;6306619;22;19946;-69
2023/03/11 13:35:08;;;;;;;;;;;24.20;88.10;;;;;;6306630;22;19903;-69
2023/03/11 13:37:53;;;;;;;;;;;24.20;88.30;;;;;;6306834;22;19972;-69
2023/03/11 13:40:28;;;;;;;;;;;24.20;88.40;;;;;;6279133;22;19903;-69
2023/03/11 13:42:55;;;;;;;;;;;24.20;88.60;;;;;;6279107;22;20329;-69
2023/03/11 13:45:22;;;;;;;;;;;24.10;89.00;;;;;;6306586;22;19906;-69
2023/03/11 13:47:49;;;;;;;;;;;24.20;88.90;;;;;;6306513;22;20348;-68
2023/03/11 13:50:20;;;;;;;;;;;24.20;89.20;;;;;;6279564;22;20230;-68
2023/03/11 13:52:47;;;;;;;;;;;24.20;89.30;;;;;;6279491;22;19911;-68
2023/03/11 13:55:18;;;;;;;;;;;24.20;89.60;;;;;;6279692;22;19986;-68
2023/03/11 13:57:54;;;;;;;;;;;24.20;89.70;;;;;;6279822;22;20353;-68
2023/03/11 14:00:27;;;;;;;;;;;24.20;89.90;;;;;;6279541;22;19910;-68
2023/03/11 14:02:54;;;;;;;;;;;24.20;90.10;;;;;;6280224;22;19903;-69
2023/03/11 14:05:26;;;;;;;;;;;24.20;90.20;;;;;;6279612;22;19906;-68
2023/03/11 14:07:53;;;;;;;;;;;24.20;90.30;;;;;;6279311;22;19918;-68
2023/03/11 14:10:21;;;;;;;;;;;24.20;90.20;;;;;;6305758;22;19949;-68
2023/03/11 14:12:47;;;;;;;;;;;24.20;90.20;;;;;;6306183;22;19903;-69
2023/03/11 14:15:19;;;;;;;;;;;24.20;90.30;;;;;;6279357;22;19987;-68
2023/03/11 14:17:46;;;;;;;;;;;24.20;90.10;;;;;;6279363;22;19918;-69
2023/03/11 14:20:15;;;;;;;;;;;24.10;89.80;;;;;;6279190;22;19914;-68
2023/03/11 14:22:46;;;;;;;;;;;24.00;89.40;;;;;;6279109;22;20246;-68
2023/03/11 14:25:16;;;;;;;;;;;24.00;89.10;;;;;;6306417;22;19941;-68
2023/03/11 14:27:44;;;;;;;;;;;23.90;89.00;;;;;;6279611;22;20368;-69